createdAt,value
2022-12-06T00:01:32.485Z,16.63
2022-12-06T00:04:06.297Z,20.67
2022-12-06T00:06:37.830Z,13.25
2022-12-06T00:09:05.674Z,16.95
2022-12-06T00:11:34.613Z,15.00
2022-12-06T00:14:04.942Z,16.58
2022-12-06T00:16:33.914Z,16.55
2022-12-06T00:19:01.979Z,14.60
2022-12-06T00:21:31.493Z,17.40
2022-12-06T00:24:07.560Z,13.40
2022-12-06T00:26:41.240Z,14.93
2022-12-06T00:29:14.471Z,16.40
2022-12-06T00:31:41.771Z,12.27
2022-12-06T00:34:09.183Z,13.32
2022-12-06T00:36:38.754Z,16.98
2022-12-06T00:39:13.141Z,16.10
2022-12-06T00:41:41.141Z,12.68
2022-12-06T00:44:09.427Z,14.75
2022-12-06T00:46:37.241Z,17.75
2022-12-06T00:49:06.833Z,12.73
2022-12-06T00:51:35.465Z,19.50
2022-12-06T00:54:03.116Z,14.25
2022-12-06T00:56:30.654Z,14.45
2022-12-06T00:58:58.173Z,14.75
2022-12-06T01:01:29.209Z,13.10
2022-12-06T01:04:02.122Z,15.35
2022-12-06T01:06:32.481Z,12.00
2022-12-06T01:09:02.981Z,12.63
2022-12-06T01:11:31.328Z,11.38
2022-12-06T01:13:59.023Z,15.60
2022-12-06T01:16:29.482Z,13.88
2022-12-06T01:18:59.500Z,11.98
2022-12-06T01:21:27.486Z,16.35
2022-12-06T01:23:54.707Z,12.00
2022-12-06T01:26:27.066Z,15.90
2022-12-06T01:28:54.741Z,13.18
2022-12-06T01:31:22.041Z,14.45
2022-12-06T01:33:49.340Z,11.52
2022-12-06T01:36:21.290Z,11.75
2022-12-06T01:38:57.503Z,15.38
2022-12-06T01:41:27.069Z,12.40
2022-12-06T01:43:55.433Z,13.68
2022-12-06T01:46:41.764Z,13.75
2022-12-06T01:49:11.937Z,14.45
2022-12-06T01:51:44.024Z,17.70
2022-12-06T01:54:13.501Z,16.80
2022-12-06T01:56:41.329Z,13.27
2022-12-06T01:59:10.503Z,13.43
2022-12-06T02:01:39.500Z,14.75
2022-12-06T02:04:07.424Z,19.77
2022-12-06T02:06:34.987Z,19.98
2022-12-06T02:09:05.118Z,16.25
2022-12-06T02:11:35.496Z,19.70
2022-12-06T02:14:06.422Z,12.38
2022-12-06T02:16:39.500Z,14.60
2022-12-06T02:19:27.796Z,16.35
2022-12-06T02:22:09.143Z,14.65
2022-12-06T02:24:55.227Z,16.15
2022-12-06T02:27:31.711Z,14.68
2022-12-06T02:30:18.884Z,16.45
2022-12-06T02:32:59.467Z,13.95
2022-12-06T02:35:39.506Z,11.63
2022-12-06T02:38:18.029Z,14.27
2022-12-06T02:40:55.728Z,13.60
2022-12-06T02:43:28.267Z,12.15
2022-12-06T02:45:59.588Z,9.93
2022-12-06T02:48:27.188Z,18.20
2022-12-06T02:51:02.902Z,12.10
2022-12-06T02:53:34.615Z,11.57
2022-12-06T02:56:02.398Z,9.40
2022-12-06T02:58:34.054Z,10.90
2022-12-06T03:01:15.380Z,14.85
2022-12-06T03:04:10.103Z,9.38
2022-12-06T03:07:07.532Z,11.55
2022-12-06T03:09:48.009Z,10.57
2022-12-06T03:12:20.865Z,12.43
2022-12-06T03:15:05.518Z,15.60
2022-12-06T03:18:08.320Z,12.20
2022-12-06T03:20:50.056Z,9.98
2022-12-06T03:23:29.238Z,13.07
2022-12-06T03:26:00.184Z,13.60
2022-12-06T03:28:29.096Z,10.13
2022-12-06T03:31:01.429Z,11.85
2022-12-06T03:33:31.556Z,9.75
2022-12-06T03:35:59.696Z,9.68
2022-12-06T03:38:58.449Z,11.07
2022-12-06T03:41:30.213Z,14.00
2022-12-06T03:43:59.349Z,12.88
2022-12-06T03:46:34.833Z,13.00
2022-12-06T03:49:07.910Z,12.93
2022-12-06T03:51:37.704Z,12.25
2022-12-06T03:54:08.123Z,13.88
2022-12-06T03:56:37.970Z,17.85
2022-12-06T03:59:09.736Z,14.18
2022-12-06T04:01:37.510Z,13.93
2022-12-06T04:04:05.091Z,12.15
2022-12-06T04:06:32.546Z,13.07
2022-12-06T04:09:19.558Z,14.77
2022-12-06T04:11:47.312Z,16.95
2022-12-06T04:14:14.418Z,10.70
2022-12-06T04:16:59.966Z,10.55
2022-12-06T04:22:12.758Z,11.25
2022-12-06T04:27:25.723Z,14.43
2022-12-06T04:30:11.406Z,11.38
2022-12-06T04:32:57.198Z,15.25
2022-12-06T04:35:42.879Z,14.82
2022-12-06T04:38:28.905Z,15.32
2022-12-06T04:40:56.001Z,15.43
2022-12-06T04:43:41.628Z,15.43
2022-12-06T04:48:40.373Z,14.30
2022-12-06T04:51:07.987Z,15.85
2022-12-06T04:53:35.041Z,17.80
2022-12-06T04:56:02.319Z,15.02
2022-12-06T04:58:29.461Z,13.10
2022-12-06T05:00:56.632Z,14.85
2022-12-06T05:03:23.774Z,14.18
2022-12-06T05:05:50.950Z,17.98
2022-12-06T05:08:18.393Z,17.63
2022-12-06T05:10:52.377Z,16.58
2022-12-06T05:13:20.664Z,20.65
2022-12-06T05:15:51.820Z,14.75
2022-12-06T05:18:19.556Z,13.85
2022-12-06T05:20:47.343Z,13.23
2022-12-06T05:23:15.167Z,17.85
2022-12-06T05:25:42.417Z,14.50
2022-12-06T05:28:10.329Z,15.15
2022-12-06T05:30:37.438Z,18.27
2022-12-06T05:33:04.582Z,14.57
2022-12-06T05:35:31.809Z,18.33
2022-12-06T05:37:59.030Z,22.40
2022-12-06T05:40:26.279Z,16.35
2022-12-06T05:42:53.462Z,18.38
2022-12-06T05:45:20.824Z,22.27
2022-12-06T05:47:48.014Z,19.92
2022-12-06T05:50:15.871Z,19.77
2022-12-06T05:52:43.227Z,23.55
2022-12-06T05:55:10.407Z,18.00
2022-12-06T05:57:40.118Z,21.85
2022-12-06T06:00:10.396Z,19.75
2022-12-06T06:02:37.729Z,18.75
2022-12-06T06:05:05.687Z,19.88
2022-12-06T06:07:32.952Z,19.27
2022-12-06T06:10:00.451Z,19.30
2022-12-06T06:12:27.957Z,21.60
2022-12-06T06:14:55.200Z,20.38
2022-12-06T06:17:22.585Z,22.17
2022-12-06T06:19:51.559Z,28.25
2022-12-06T06:22:20.344Z,19.05
2022-12-06T06:24:47.687Z,23.17
2022-12-06T06:27:14.895Z,28.35
2022-12-06T06:29:45.350Z,23.58
2022-12-06T06:32:14.047Z,26.27
2022-12-06T06:34:41.297Z,25.52
2022-12-06T06:37:08.392Z,29.05
2022-12-06T06:39:35.566Z,24.08
2022-12-06T06:42:02.771Z,21.67
2022-12-06T06:44:30.110Z,23.17
2022-12-06T06:46:57.299Z,20.52
2022-12-06T06:49:24.975Z,18.70
2022-12-06T06:51:52.075Z,17.05
2022-12-06T06:54:19.339Z,17.63
2022-12-06T06:56:46.841Z,16.55
2022-12-06T06:59:13.958Z,19.45
2022-12-06T07:01:41.110Z,20.60
2022-12-06T07:04:08.326Z,20.13
2022-12-06T07:06:35.488Z,19.10
2022-12-06T07:09:02.816Z,17.77
2022-12-06T07:11:30.092Z,15.65
2022-12-06T07:13:57.196Z,13.95
2022-12-06T07:16:24.449Z,15.63
2022-12-06T07:18:51.819Z,19.35
2022-12-06T07:21:19.229Z,16.83
2022-12-06T07:23:46.860Z,15.45
2022-12-06T07:26:17.084Z,17.80
2022-12-06T07:28:46.340Z,13.38
2022-12-06T07:31:17.870Z,17.02
2022-12-06T07:33:46.351Z,17.40
2022-12-06T07:36:14.875Z,20.20
2022-12-06T07:38:43.955Z,13.32
2022-12-06T07:41:32.209Z,14.10
2022-12-06T07:44:18.990Z,15.20
2022-12-06T07:46:47.872Z,17.13
2022-12-06T07:49:17.116Z,14.50
2022-12-06T07:51:51.027Z,14.95
2022-12-06T07:54:18.272Z,19.38
2022-12-06T07:56:45.493Z,13.65
2022-12-06T07:59:13.368Z,18.15
2022-12-06T08:01:41.085Z,15.05
2022-12-06T08:04:08.648Z,21.73
2022-12-06T08:06:36.117Z,14.35
2022-12-06T08:09:03.731Z,16.65
2022-12-06T08:11:31.018Z,19.02
2022-12-06T08:13:58.246Z,17.80
2022-12-06T08:16:25.323Z,11.77
2022-12-06T08:18:52.969Z,15.20
2022-12-06T08:21:20.483Z,18.85
2022-12-06T08:23:47.928Z,16.65
2022-12-06T08:26:16.913Z,20.13
2022-12-06T08:28:44.151Z,14.75
2022-12-06T08:31:15.569Z,18.33
2022-12-06T08:33:42.963Z,25.30
2022-12-06T08:36:12.928Z,18.73
2022-12-06T08:38:43.996Z,22.00
2022-12-06T08:41:31.470Z,25.17
2022-12-06T08:44:00.475Z,20.75
2022-12-06T08:46:28.946Z,21.45
2022-12-06T08:48:56.326Z,25.08
2022-12-06T08:51:23.560Z,19.13
2022-12-06T08:53:53.270Z,19.65
2022-12-06T08:56:20.476Z,20.55
2022-12-06T08:58:47.902Z,17.92
2022-12-06T09:01:21.523Z,17.42
2022-12-06T09:03:48.816Z,14.10
2022-12-06T09:06:16.674Z,15.45
2022-12-06T09:08:43.942Z,13.65
2022-12-06T09:11:11.072Z,18.27
2022-12-06T09:13:39.259Z,17.25
2022-12-06T09:16:08.653Z,18.05
2022-12-06T09:18:36.268Z,17.25
2022-12-06T09:21:07.590Z,16.60
2022-12-06T09:23:35.990Z,18.10
2022-12-06T09:26:05.101Z,15.88
2022-12-06T09:28:34.083Z,17.83
2022-12-06T09:31:02.568Z,16.30
2022-12-06T09:33:29.768Z,16.63
2022-12-06T09:35:58.903Z,13.65
2022-12-06T09:38:29.626Z,16.23
2022-12-06T09:41:45.124Z,15.30
2022-12-06T09:44:39.957Z,15.32
2022-12-06T09:47:31.636Z,16.80
2022-12-06T09:50:35.967Z,14.05
2022-12-06T09:53:41.371Z,20.98
2022-12-06T09:56:58.258Z,13.57
2022-12-06T10:02:24.939Z,18.58
2022-12-06T10:05:08.632Z,12.48
2022-12-06T10:08:00.905Z,12.00
2022-12-06T10:10:36.108Z,12.23
2022-12-06T10:13:16.625Z,10.32
2022-12-06T10:15:59.179Z,9.18
2022-12-06T10:18:29.345Z,6.35
2022-12-06T10:21:44.780Z,6.88
2022-12-06T10:24:26.751Z,4.05
2022-12-06T10:26:58.023Z,6.88
2022-12-06T10:29:44.860Z,6.43
2022-12-06T10:32:40.346Z,6.82
2022-12-06T10:35:32.387Z,5.07
2022-12-06T10:38:20.597Z,4.90
2022-12-06T10:41:14.057Z,4.65
2022-12-06T10:44:05.273Z,6.15
2022-12-06T10:46:57.578Z,6.20
2022-12-06T10:50:02.193Z,5.53
2022-12-06T10:53:12.982Z,8.90
2022-12-06T10:56:02.589Z,3.38
2022-12-06T10:58:45.971Z,5.07
2022-12-06T11:01:19.061Z,6.20
2022-12-06T11:04:03.422Z,8.40
2022-12-06T11:07:18.121Z,3.55
2022-12-06T11:09:50.116Z,4.70
2022-12-06T11:12:34.224Z,3.88
2022-12-06T11:15:27.733Z,3.75
2022-12-06T11:18:05.526Z,5.07
2022-12-06T11:20:59.312Z,2.65
2022-12-06T11:23:53.463Z,3.63
2022-12-06T11:26:40.577Z,2.35
2022-12-06T11:29:12.768Z,7.65
2022-12-06T11:32:02.857Z,3.13
2022-12-06T11:34:39.245Z,2.28
2022-12-06T11:37:07.084Z,4.28
2022-12-06T11:39:34.610Z,5.70
2022-12-06T11:42:04.662Z,5.40
2022-12-06T11:44:59.703Z,7.03
2022-12-06T11:47:27.339Z,8.23
2022-12-06T11:50:00.371Z,7.22
2022-12-06T11:52:37.524Z,20.70
2022-12-06T11:55:27.722Z,12.05
2022-12-06T11:58:19.244Z,8.75
2022-12-06T12:00:59.275Z,11.13
2022-12-06T12:03:32.599Z,8.73
2022-12-06T12:06:29.388Z,7.80
2022-12-06T12:09:00.541Z,6.90
2022-12-06T12:11:34.410Z,9.60
2022-12-06T12:14:04.612Z,7.97
2022-12-06T12:16:46.666Z,8.40
2022-12-06T12:19:44.184Z,9.73
2022-12-06T12:22:46.669Z,9.60
2022-12-06T12:25:31.722Z,10.73
2022-12-06T12:28:03.797Z,10.27
2022-12-06T12:30:38.469Z,10.52
2022-12-06T12:33:08.581Z,13.40
2022-12-06T12:36:04.415Z,14.60
2022-12-06T12:38:54.157Z,9.48
2022-12-06T12:41:27.895Z,11.85
2022-12-06T12:44:35.867Z,11.32
2022-12-06T12:46:57.592Z,13.32
2022-12-06T12:49:36.728Z,9.55
2022-12-06T12:52:51.362Z,12.52
2022-12-06T12:55:32.277Z,11.82
2022-12-06T12:58:00.811Z,10.02
2022-12-06T13:00:30.585Z,10.27
2022-12-06T13:03:00.816Z,11.98
2022-12-06T13:05:35.596Z,10.38
2022-12-06T13:08:23.570Z,11.18
2022-12-06T13:10:58.780Z,11.45
2022-12-06T13:13:46.194Z,8.57
2022-12-06T13:16:17.993Z,12.25
2022-12-06T13:18:52.980Z,9.98
2022-12-06T13:21:27.901Z,10.80
2022-12-06T13:24:20.733Z,11.15
2022-12-06T13:27:14.837Z,7.93
2022-12-06T13:29:46.626Z,8.57
2022-12-06T13:32:24.250Z,9.07
2022-12-06T13:34:57.714Z,9.60
2022-12-06T13:37:34.162Z,7.45
2022-12-06T13:40:02.554Z,5.82
2022-12-06T13:42:38.663Z,6.82
2022-12-06T13:45:27.490Z,7.63
2022-12-06T13:47:54.702Z,6.40
2022-12-06T13:50:21.838Z,7.82
2022-12-06T13:52:49.010Z,7.72
2022-12-06T13:55:25.746Z,6.32
2022-12-06T13:57:56.109Z,8.82
2022-12-06T14:00:43.462Z,8.00
2022-12-06T14:03:16.927Z,6.28
2022-12-06T14:06:09.078Z,9.07
2022-12-06T14:08:52.296Z,13.75
2022-12-06T14:11:24.559Z,15.48
2022-12-06T14:14:00.611Z,16.50
2022-12-06T14:16:42.702Z,14.43
2022-12-06T14:19:24.295Z,18.02
2022-12-06T14:21:57.173Z,15.68
2022-12-06T14:24:40.122Z,19.52
2022-12-06T14:27:22.193Z,16.98
2022-12-06T14:30:06.428Z,17.67
2022-12-06T14:32:38.222Z,20.58
2022-12-06T14:35:18.088Z,19.90
2022-12-06T14:37:58.646Z,18.83
2022-12-06T14:40:50.646Z,14.55
2022-12-06T14:43:19.493Z,18.98
2022-12-06T14:45:47.059Z,13.85
2022-12-06T14:48:15.549Z,32.72
2022-12-06T14:50:52.423Z,25.73
2022-12-06T14:53:37.148Z,49.28
2022-12-06T14:56:06.237Z,47.40
2022-12-06T14:58:43.275Z,33.33
2022-12-06T15:01:21.608Z,21.60
2022-12-06T15:03:59.975Z,23.63
2022-12-06T15:06:29.557Z,36.67
2022-12-06T15:08:59.637Z,31.48
2022-12-06T15:11:47.987Z,24.77
2022-12-06T15:14:29.952Z,19.02
2022-12-06T15:17:11.039Z,42.65
2022-12-06T15:19:40.591Z,49.33
2022-12-06T15:22:26.722Z,30.55
2022-12-06T15:24:56.697Z,27.67
2022-12-06T15:27:27.167Z,29.58
2022-12-06T15:29:57.113Z,27.50
2022-12-06T15:32:27.463Z,25.50
2022-12-06T15:34:56.748Z,26.95
2022-12-06T15:37:38.788Z,28.20
2022-12-06T15:40:07.944Z,30.20
2022-12-06T15:42:36.188Z,23.08
2022-12-06T15:45:03.706Z,29.30
2022-12-06T15:47:30.918Z,53.25
2022-12-06T15:49:58.664Z,37.28
2022-12-06T15:52:26.977Z,27.35
2022-12-06T15:54:54.233Z,40.17
2022-12-06T15:57:21.406Z,57.33
2022-12-06T15:59:48.531Z,41.90
2022-12-06T16:02:19.002Z,39.35
2022-12-06T16:04:48.666Z,21.80
2022-12-06T16:07:19.404Z,24.33
2022-12-06T16:09:47.723Z,21.27
2022-12-06T16:12:16.076Z,21.85
2022-12-06T16:14:43.456Z,31.25
2022-12-06T16:17:10.699Z,27.20
2022-12-06T16:19:56.279Z,30.52
2022-12-06T16:25:10.671Z,20.05
2022-12-06T16:27:38.348Z,26.13
2022-12-06T16:30:07.148Z,22.83
2022-12-06T16:32:34.135Z,20.35
2022-12-06T16:35:01.508Z,19.20
2022-12-06T16:37:28.868Z,19.77
2022-12-06T16:39:58.917Z,16.98
2022-12-06T16:42:25.948Z,21.50
2022-12-06T16:44:53.094Z,17.85
2022-12-06T16:49:48.077Z,62.55
2022-12-06T16:52:17.132Z,67.00
2022-12-06T16:54:44.741Z,26.67
2022-12-06T16:57:13.055Z,21.50
2022-12-06T16:59:42.912Z,17.90
2022-12-06T17:02:30.611Z,22.08
2022-12-06T17:05:01.302Z,17.60
2022-12-06T17:07:29.316Z,18.02
2022-12-06T17:09:56.829Z,17.05
2022-12-06T17:12:24.125Z,23.75
2022-12-06T17:14:51.539Z,17.38
2022-12-06T17:17:21.710Z,19.13
2022-12-06T17:19:49.893Z,15.13
2022-12-06T17:22:18.827Z,14.77
2022-12-06T17:24:46.351Z,12.82
2022-12-06T17:27:15.173Z,15.63
2022-12-06T17:29:43.978Z,13.02
2022-12-06T17:32:12.092Z,17.25
2022-12-06T17:34:39.267Z,11.73
2022-12-06T17:37:06.624Z,14.30
2022-12-06T17:39:33.994Z,11.40
2022-12-06T17:42:19.692Z,13.80
2022-12-06T17:47:16.259Z,11.90
2022-12-06T17:49:43.313Z,13.40
2022-12-06T17:52:13.456Z,11.18
2022-12-06T17:54:40.916Z,14.60
2022-12-06T17:57:16.391Z,11.18
2022-12-06T17:59:44.646Z,13.13
2022-12-06T18:02:18.762Z,13.75
2022-12-06T18:04:47.710Z,16.45
2022-12-06T18:07:15.660Z,15.27
2022-12-06T18:09:43.166Z,11.80
2022-12-06T18:12:12.295Z,11.23
2022-12-06T18:14:39.713Z,17.80
2022-12-06T18:17:07.189Z,13.85
2022-12-06T18:19:34.856Z,11.02
2022-12-06T18:22:02.270Z,10.55
2022-12-06T18:24:35.441Z,11.50
2022-12-06T18:27:07.107Z,10.63
2022-12-06T18:29:35.378Z,11.25
2022-12-06T18:32:04.096Z,11.02
2022-12-06T18:34:32.004Z,12.05
2022-12-06T18:36:59.293Z,9.82
2022-12-06T18:39:26.669Z,13.25
2022-12-06T18:41:54.753Z,12.68
2022-12-06T18:44:25.113Z,12.45
2022-12-06T18:46:52.508Z,15.27
2022-12-06T18:49:19.636Z,11.32
2022-12-06T18:51:46.928Z,13.18
2022-12-06T18:54:14.357Z,14.18
2022-12-06T18:56:42.214Z,15.05
2022-12-06T18:59:11.322Z,79.65
2022-12-06T19:01:39.589Z,241.13
2022-12-06T19:04:14.991Z,169.35
2022-12-06T19:06:44.144Z,67.65
2022-12-06T19:09:13.765Z,42.00
2022-12-06T19:11:43.328Z,78.13
2022-12-06T19:14:10.851Z,38.55
2022-12-06T19:16:48.012Z,18.92
2022-12-06T19:19:22.209Z,19.40
2022-12-06T19:21:51.092Z,18.70
2022-12-06T19:24:21.789Z,12.02
2022-12-06T19:26:53.015Z,17.17
2022-12-06T19:29:20.540Z,8.82
2022-12-06T19:31:47.975Z,13.18
2022-12-06T19:34:24.729Z,12.60
2022-12-06T19:36:53.637Z,10.75
2022-12-06T19:39:21.513Z,12.05
2022-12-06T19:42:07.392Z,12.07
2022-12-06T19:44:34.663Z,11.57
2022-12-06T19:47:01.911Z,10.23
2022-12-06T19:49:29.374Z,9.80
2022-12-06T19:51:56.646Z,13.25
2022-12-06T19:54:29.997Z,12.98
2022-12-06T19:56:59.277Z,9.32
2022-12-06T19:59:29.001Z,12.00
2022-12-06T20:01:58.521Z,15.75
2022-12-06T20:04:30.904Z,10.52
2022-12-06T20:06:58.735Z,15.27
2022-12-06T20:09:27.794Z,11.43
2022-12-06T20:12:01.883Z,9.27
2022-12-06T20:14:36.494Z,11.55
2022-12-06T20:17:07.565Z,12.85
2022-12-06T20:19:36.648Z,15.43
2022-12-06T20:22:04.470Z,11.88
2022-12-06T20:24:33.045Z,11.95
2022-12-06T20:27:02.317Z,10.68
2022-12-06T20:29:30.362Z,13.52
2022-12-06T20:31:59.544Z,10.98
2022-12-06T20:34:34.555Z,12.63
2022-12-06T20:37:06.147Z,13.20
2022-12-06T20:39:35.963Z,15.27
2022-12-06T20:42:06.044Z,16.27
2022-12-06T20:44:34.140Z,14.75
2022-12-06T20:47:01.498Z,16.55
2022-12-06T20:49:28.733Z,11.50
2022-12-06T20:51:56.922Z,12.50
2022-12-06T20:54:23.976Z,9.60
2022-12-06T20:56:53.813Z,13.02
2022-12-06T20:59:21.416Z,12.55
2022-12-06T21:01:48.822Z,14.57
2022-12-06T21:04:16.329Z,14.57
2022-12-06T21:06:43.786Z,11.93
2022-12-06T21:09:11.110Z,16.50
2022-12-06T21:11:38.380Z,13.35
2022-12-06T21:14:06.334Z,15.30
2022-12-06T21:16:35.612Z,12.75
2022-12-06T21:19:08.994Z,10.52
2022-12-06T21:21:38.694Z,11.30
2022-12-06T21:24:12.083Z,18.20
2022-12-06T21:26:39.421Z,16.90
2022-12-06T21:29:07.096Z,16.80
2022-12-06T21:31:36.668Z,15.00
2022-12-06T21:34:04.635Z,14.32
2022-12-06T21:36:32.228Z,18.20
2022-12-06T21:38:59.750Z,14.98
2022-12-06T21:41:27.559Z,17.02
2022-12-06T21:43:54.909Z,14.68
2022-12-06T21:46:25.163Z,18.52
2022-12-06T21:48:57.705Z,16.23
2022-12-06T21:51:27.430Z,16.77
2022-12-06T21:53:55.096Z,14.82
2022-12-06T21:56:28.187Z,17.25
2022-12-06T21:58:55.922Z,17.70
2022-12-06T22:01:25.655Z,17.60
2022-12-06T22:03:54.659Z,14.48
2022-12-06T22:06:22.449Z,15.70
2022-12-06T22:08:55.726Z,18.98
2022-12-06T22:11:22.906Z,13.52
2022-12-06T22:13:50.880Z,13.60
2022-12-06T22:16:19.408Z,18.35
2022-12-06T22:18:46.991Z,14.18
2022-12-06T22:21:17.758Z,15.05
2022-12-06T22:23:45.781Z,16.40
2022-12-06T22:26:18.567Z,19.05
2022-12-06T22:28:46.111Z,17.48
2022-12-06T22:31:16.491Z,16.83
2022-12-06T22:33:44.350Z,12.95
2022-12-06T22:36:13.173Z,15.00
2022-12-06T22:38:41.057Z,18.88
2022-12-06T22:41:09.429Z,15.55
2022-12-06T22:43:37.516Z,13.38
2022-12-06T22:46:13.955Z,17.92
2022-12-06T22:48:42.296Z,14.85
2022-12-06T22:51:15.201Z,15.38
2022-12-06T22:53:45.495Z,17.10
2022-12-06T22:56:14.043Z,12.57
2022-12-06T22:58:42.008Z,16.00
2022-12-06T23:01:17.220Z,12.25
2022-12-06T23:03:46.520Z,17.10
2022-12-06T23:06:15.233Z,22.55
2022-12-06T23:08:43.322Z,15.43
2022-12-06T23:11:13.930Z,17.42
2022-12-06T23:13:41.930Z,16.20
2022-12-06T23:16:13.671Z,15.25
2022-12-06T23:18:41.159Z,14.50
2022-12-06T23:21:20.802Z,17.45
2022-12-06T23:23:50.443Z,17.52
2022-12-06T23:26:25.751Z,18.42
2022-12-06T23:28:53.335Z,12.98
2022-12-06T23:31:23.458Z,16.35
2022-12-06T23:33:59.131Z,15.90
2022-12-06T23:36:31.668Z,20.10
2022-12-06T23:38:58.924Z,12.43
2022-12-06T23:41:28.765Z,13.65
2022-12-06T23:43:57.000Z,12.80
2022-12-06T23:46:29.544Z,15.90
2022-12-06T23:48:57.556Z,17.70
2022-12-06T23:51:27.402Z,16.33
2022-12-06T23:53:59.669Z,13.55
2022-12-06T23:56:33.873Z,17.50
2022-12-06T23:59:02.265Z,17.85
